Station info - map view · info · telemetry · weather · raw · status · beacons · messages · bulletins · browse · moving · my account
Callsign, ship name or locator: Clear       
It is possible to search using wildcards (*?) after a prefix. Example: OH*
APRS station KC2PJH-9 - show graphs
Map loading...
Comment: 443.550MHz
Mic-E message: Off duty
Location: 41°30.59' N 73°59.09' W - locator FN31AM12TI - show map - static map
0.9 miles Northwest bearing 294° from Beacon, Dutchess County, New York, United States [?]
1.4 miles East bearing 72° from Newburgh, Orange County, New York, United States
54.9 miles North bearing 1° from New York City, New York, United States
59.4 miles North bearing 358° from Brooklyn, Kings County, New York, United States
Last position: 2019-01-17 04:04:57 EST (1d 7h13m ago)
2019-01-17 04:04:57 EST local time at Beacon, United States [?]
Altitude: 39 ft
Course: 163°
Last telemetry: 2018-06-26 19:10:59 EDT (205d 17h7m ago) – show telemetry
Ch 1: 456, Ch 2: 608, Ch 3: 0, Ch 4: 0, Ch 5: 0
 1     2     3     4     5     6     7     8 
Device: Kenwood: TM-D710 (rig)
Last path: KC2PJH-9>TQSP5Y via WIDE1-1,WIDE2-2,qAR,KC2PJH (good)
Positions stored: 63433
Packet rate: 97 seconds between packets on average during 1948 seconds.
Other SSIDs: KC2PJH
Stations near current position of KC2PJH-9 - show more
callsign distance last heard - EST      callsign distance last heard - EST
KC2ASA-81.2 miles 76°2019-01-18 03:58:39 EW22571.5 miles 136°2019-01-18 11:13:35
St.LukesN1.6 miles 254°2019-01-18 11:03:06 443.550NY2.4 miles 127°2019-01-18 10:49:11
DW18432.6 miles 237°2019-01-18 11:13:11 N2LEA3.0 miles 283°2019-01-18 11:15:02
146.430NY3.7 miles 300°2019-01-18 10:57:11 449.475NY3.7 miles 300°2019-01-18 10:58:41
DW42363.9 miles 228°2019-01-18 11:16:04 DW07565.1 miles 296°2019-01-18 11:16:05
EW16805.1 miles 296°2019-01-18 11:15:07 OCARC5.2 miles 203°2019-01-18 11:16:12
WM2C-95.2 miles 227°2019-01-17 19:51:37 K2BRT-95.3 miles 250°2019-01-17 16:24:08
St.LukesC5.9 miles 210°2019-01-18 11:05:10 K2ATY-106.0 miles 303°2019-01-18 11:04:34
KJ6KEE B6.0 miles 21°2019-01-01 03:46:13 KJ6KEE-B6.0 miles 21°2019-01-01 03:46:23
KC2PJH6.0 miles 283°2019-01-18 02:46:06 N2AEC6.2 miles 101°2019-01-18 11:08:43
Stations which heard KC2PJH-9 directly on radio –
callsign pkts first heard - EST last heard longest (tx => rx) longest at - EST
WB2SNN-15 3 2019-01-12 15:24:42 2019-01-12 20:30:28 FN20UM > FN20TK 6.9 miles 203° 2019-01-12 20:30:28
N2MH-15 33 2019-01-12 14:42:00 2019-01-12 21:14:48 FN30AJ > FN20UT 30.7 miles 333° 2019-01-12 16:34:27
WB2ZII 2 2019-01-12 14:51:30 2019-01-12 21:09:30 FN20ST > FN31CB 37.8 miles 62° 2019-01-12 14:51:30
WA2FPB-5 4 2019-01-12 16:04:32 2019-01-12 20:34:37 FN20UM > FN20XF 23.9 miles 147° 2019-01-12 20:34:37
W2AEE 4 2019-01-12 15:00:46 2019-01-12 16:38:41 FN30AJ > FN30AT 28.5 miles 2° 2019-01-12 16:38:41
KA2RLM-15 4 2019-01-12 15:36:57 2019-01-12 20:46:57 FN20WK > FN20RJ 23.3 miles 264° 2019-01-12 15:39:09
N5CAT-13 5 2019-01-12 14:32:18 2019-01-12 14:36:22 FN21VA > FN21WA 5.4 miles 98° 2019-01-12 14:36:22
K2GE-13 7 2019-01-12 15:16:26 2019-01-12 15:57:08 FN20XJ > FN20UK 16.2 miles 282° 2019-01-12 15:57:08
WB2ZII-15 7 2019-01-12 14:42:29 2019-01-12 21:20:15 FN20WK > FN31CG 60.9 miles 14° 2019-01-12 20:10:36
WB2ZII-13 1 2019-01-12 21:08:33 2019-01-12 21:08:33 FN20TV > FN31FH 52.2 miles 56° 2019-01-12 21:08:33
K2DLS-15 25 2019-01-12 15:13:57 2019-01-12 20:28:26 FN20UN > FN20VJ 13.7 miles 152° 2019-01-12 15:13:57
KB2EAR-1 25 2019-01-12 15:08:57 2019-01-12 21:24:37 FN30AJ > FN20RO 34.4 miles 295° 2019-01-12 16:24:53
W2GSA-10 37 2019-01-12 15:08:26 2019-01-12 20:32:28 FN20UP > FN20WG 29.1 miles 159° 2019-01-12 15:08:26
W2KB-15 1 2019-01-12 20:33:02 2019-01-12 20:33:02 FN20TM > FN20NS 28.8 miles 302° 2019-01-12 20:33:02
KF2EE-10 19 2019-01-12 14:34:52 2019-01-12 21:19:15 FN21VA > FN20TW 8.2 miles 234° 2019-01-12 14:34:52
MATWAN 57 2019-01-12 15:09:57 2019-01-12 20:41:49 FN20RN > FN20VJ 20.1 miles 126° 2019-01-12 20:41:49
KC2OUR-4 16 2019-01-10 17:29:56 2019-01-12 21:41:55 FN21WC > FN21TJ 22.4 miles 333° 2019-01-12 21:26:49
N2UFM-2 2 2019-01-12 20:14:08 2019-01-12 20:15:12 FN20WK > FN20VN 7.6 miles 346° 2019-01-12 20:14:08
AC2SV-10 16 2019-01-12 14:57:08 2019-01-12 20:34:35 FN20TN > FN20UR 12.5 miles 21° 2019-01-12 20:34:35
NK1N-1 1 2019-01-12 20:46:27 2019-01-12 20:46:27 FN20QO > FN20PL 8.1 miles 196° 2019-01-12 20:46:27
K2GE-14 1 2019-01-12 20:23:51 2019-01-12 20:23:51 FN20UK > FN20TK 5.7 miles 247° 2019-01-12 20:23:51
KE2A-10 2 2019-01-12 16:06:48 2019-01-12 16:25:22 FN30AJ > FN30AP 18.2 miles 358° 2019-01-12 16:25:22
KR2C-1 4 2019-01-12 20:30:58 2019-01-12 20:47:26 FN20TM > FN20OL 25.7 miles 263° 2019-01-12 20:30:58
N3UXK-11 4 2019-01-12 21:07:25 2019-01-12 21:12:34 FN20TV > FN20VV 11.4 miles 92° 2019-01-12 21:07:25
N5EIL-1 1 2019-01-12 15:53:23 2019-01-12 15:53:23 FN20XJ > FN30AQ 18.7 miles 10° 2019-01-12 15:53:23
AL0Y-10 11 2019-01-12 14:33:53 2019-01-12 21:10:32 FN30AJ > FN20VV 35.2 miles 343° 2019-01-12 16:25:56
KC2PJH 434 2019-01-01 03:45:13 2019-01-17 04:04:57 FN31AL > FN21WM 8.7 miles 286° 2019-01-13 15:38:22
KC2VTJ 3 2019-01-13 16:13:40 2019-01-13 16:15:11 FN21WO > FN21WO 1.0 miles 207° 2019-01-13 16:14:10

Only position packets which were originated by the station are shown here. The range statistics show some extra long hops, because some digipeaters do not correctly add themselves to the digipeater path. Please check the raw packets.
About this site
This page shows real-time information collected from the Automatic Position Reporting System Internet network (APRS-IS). APRS is used by amateur (ham) radio operators to transmit real-time position information, weather data, telemetry and messages over the radio. A vehicle equipped with a GPS receiver, a VHF transmitter or HF transceiver and a small computer device called a tracker transmits it's location, speed and course in a small data packet, which is then received by a nearby iGate receiving site which forwards the packet on the Internet. Systems connected to the Internet can send information on the APRS-IS without a radio transmitter, or collect and display information transmitted anywhere in the world.
FAQ · Blog · Discussion group · Linking to aprs.fi · AIS sites · Service status · Database statistics · Advertising on aprs.fi · Technical details · API · Change log · Planned changes · Credits and thanks · Terms Of Service · iPhone/iPad APRS